KNJK/NJK METAR and TAF weather

Enter ICAO airport designator
Station Type Date Time Source
KNJK METAR 2021/09/23 22:56 UTC NOAA

KNJK 232256Z 14016KT 10SM FEW070 BKN120 BKN200 37/16 A2976 RMK AO2 SLP092 LTG AND CB DSNT SW T03720161 $


Station Type Date Time Source
KNJK Decoded METAR 2021/09/23 22:56 UTC NOAA

El Centro, Naval Air Facility, CA, United States (KNJK) 32-49-30N 115-39-38W -13M
Sep 23, 2021 - 06:56 PM EDT / 2021.09.23 2256 UTC
Wind: from the SE (140 degrees) at 18 MPH (16 KT):0
Visibility: 10 mile(s):0
Sky conditions: mostly cloudy
Weather: Cumulonimbus clouds, lightning observed
Temperature: 99.0 F (37.2 C)
Heat index: 99.5 F (37.5 C):1
Dew Point: 61.0 F (16.1 C)
Relative Humidity: 28%
Pressure (altimeter): 29.76 in. Hg (1007 hPa)
ob: KNJK 232256Z 14016KT 10SM FEW070 BKN120 BKN200 37/16 A2976 RMK AO2 SLP092 LTG AND CB DSNT SW T03720161
cycle: 23

Station Type Date Time Source
KNJK TAF 2021/09/23 23:03 UTC NOAA

TAF KNJK 2323/2423 12008KT 9999 FEW070 SCT120 SCT250 QNH2972INS
TEMPO 2323/2401 VRB15G25KT VCSH FEW070 SCT120CB BKN200
FM240100 VRB06KT 9999 FEW070 SCT120 SCT200 QNH2970INS
FM240600 25007KT 9999 FEW070 FEW120 QNH2975INS
FM241900 VRB06KT 9999 VCSH FEW070 BKN120 QNH2980INS AUTOMATED SENSOR METWATCH 2406 TIL 2413 T38/2323Z T23/2413Z FS30152

Example: see airport list